createdAt,value
2019-04-16T00:02:22.214Z,99290.00
2019-04-16T00:13:06.385Z,99327.00
2019-04-16T00:23:43.290Z,99366.00
2019-04-16T00:34:24.809Z,99406.00
2019-04-16T00:45:09.669Z,99427.00
2019-04-16T00:55:52.239Z,99430.00
2019-04-16T01:06:33.565Z,99463.00
2019-04-16T01:17:17.011Z,99488.00
2019-04-16T01:28:01.284Z,99505.00
2019-04-16T01:38:45.610Z,99512.00
2019-04-16T01:49:21.564Z,99536.00
2019-04-16T02:00:07.993Z,99535.00
2019-04-16T02:10:50.214Z,99539.00
2019-04-16T02:21:32.580Z,99548.00
2019-04-16T02:32:15.440Z,99559.00
2019-04-16T02:43:04.211Z,99590.00
2019-04-16T02:53:43.909Z,99627.00
2019-04-16T03:04:27.057Z,99678.00
2019-04-16T03:15:02.432Z,99692.00
2019-04-16T03:25:45.416Z,99725.00
2019-04-16T03:36:29.584Z,99773.00
2019-04-16T03:47:08.083Z,99794.00
2019-04-16T03:57:49.346Z,99813.00
2019-04-16T04:08:31.522Z,99852.00
2019-04-16T04:19:16.377Z,99876.00
2019-04-16T04:30:01.002Z,99890.00
2019-04-16T04:40:45.153Z,99911.00
2019-04-16T04:51:26.324Z,99918.00
2019-04-16T05:02:10.540Z,99917.00
2019-04-16T05:12:53.697Z,99882.00
2019-04-16T05:23:37.795Z,99844.00
2019-04-16T05:34:23.140Z,99144.00
2019-04-16T05:45:14.284Z,97757.00
2019-04-16T05:56:04.015Z,97079.00
2019-04-16T06:06:50.141Z,96855.00
2019-04-16T06:17:38.821Z,96600.00
2019-04-16T06:28:24.492Z,96387.00
2019-04-16T06:39:08.349Z,97098.00
2019-04-16T06:49:39.999Z,98763.00
2019-04-16T07:00:23.171Z,98833.00
2019-04-16T07:10:55.579Z,98881.00
2019-04-16T07:21:37.135Z,98864.00
2019-04-16T07:32:22.368Z,98795.00
2019-04-16T07:43:02.793Z,98693.00
2019-04-16T07:53:48.485Z,98607.00
2019-04-16T08:04:35.619Z,98539.00
2019-04-16T08:15:17.559Z,98418.00
2019-04-16T08:26:08.032Z,98360.00
2019-04-16T08:36:47.678Z,98279.00
2019-04-16T08:47:31.488Z,98163.00
2019-04-16T08:58:18.086Z,98101.00
2019-04-16T09:09:13.173Z,98092.00
2019-04-16T09:19:45.829Z,98071.00
2019-04-16T09:30:26.465Z,97961.00
2019-04-16T09:41:09.656Z,97900.00
2019-04-16T09:51:43.906Z,97894.00
2019-04-16T10:02:24.386Z,97814.00
2019-04-16T10:13:03.887Z,97746.00
2019-04-16T10:23:44.021Z,97747.00
2019-04-16T10:34:22.696Z,97673.00
2019-04-16T10:45:04.329Z,97596.00
2019-04-16T10:55:39.303Z,97553.00
2019-04-16T11:06:20.942Z,97508.00
2019-04-16T11:17:04.882Z,97443.00
2019-04-16T11:27:45.561Z,97457.00
2019-04-16T11:38:26.128Z,97371.00
2019-04-16T11:49:00.634Z,97291.00
2019-04-16T11:59:43.393Z,97250.00
2019-04-16T12:10:20.925Z,97157.00
2019-04-16T12:21:02.161Z,97160.00
2019-04-16T12:31:40.892Z,97027.00
2019-04-16T12:42:19.351Z,96992.00
2019-04-16T12:52:58.384Z,97037.00
2019-04-16T13:03:34.018Z,97042.00
2019-04-16T13:14:17.703Z,97009.00
2019-04-16T13:24:59.429Z,96997.00
2019-04-16T13:35:40.181Z,96826.00
2019-04-16T13:46:18.421Z,96842.00
2019-04-16T13:56:59.688Z,96859.00
2019-04-16T14:07:41.399Z,96766.00
2019-04-16T14:18:23.525Z,96792.00
2019-04-16T14:29:05.538Z,96841.00
2019-04-16T14:39:41.312Z,96937.00
2019-04-16T14:50:23.548Z,96976.00
2019-04-16T15:01:01.302Z,97061.00
2019-04-16T15:11:42.232Z,97049.00
2019-04-16T15:22:26.498Z,97106.00
2019-04-16T15:33:07.198Z,97145.00
2019-04-16T15:43:44.819Z,97238.00
2019-04-16T15:54:27.894Z,97400.00
2019-04-16T16:05:11.342Z,97400.00
2019-04-16T16:15:55.671Z,97508.00
2019-04-16T16:26:35.840Z,97595.00
2019-04-16T16:37:18.964Z,97678.00
2019-04-16T16:48:02.165Z,97740.00
2019-04-16T16:58:42.135Z,97829.00
2019-04-16T17:09:18.840Z,97866.00
2019-04-16T17:20:00.227Z,97881.00
2019-04-16T17:30:37.477Z,97883.00
2019-04-16T17:41:22.090Z,97923.00
2019-04-16T17:52:02.241Z,97941.00
2019-04-16T18:02:37.973Z,97962.00
2019-04-16T18:13:19.798Z,98028.00
2019-04-16T18:23:57.556Z,98144.00
2019-04-16T18:34:40.201Z,98166.00
2019-04-16T18:45:12.480Z,98210.00
2019-04-16T18:55:57.085Z,98304.00
2019-04-16T19:06:27.562Z,98275.00
2019-04-16T19:48:46.744Z,98375.00
2019-04-16T19:59:20.412Z,98381.00
2019-04-16T20:10:00.276Z,98437.00
2019-04-16T20:20:38.491Z,98453.00
2019-04-16T20:31:17.958Z,98481.00
2019-04-16T20:41:59.680Z,98477.00
2019-04-16T20:52:35.169Z,98469.00
2019-04-16T21:03:21.980Z,98502.00
2019-04-16T21:13:54.565Z,98547.00
2019-04-16T21:24:39.206Z,98560.00
2019-04-16T21:35:13.632Z,98571.00
2019-04-16T21:45:55.219Z,98617.00
2019-04-16T21:56:33.496Z,98601.00
2019-04-16T22:07:07.442Z,98648.00
2019-04-16T22:17:43.208Z,98657.00
2019-04-16T22:28:23.377Z,98684.00
2019-04-16T22:39:00.393Z,98695.00
2019-04-16T22:49:44.544Z,98706.00
2019-04-16T23:00:27.826Z,98720.00
2019-04-16T23:11:09.394Z,98755.00
2019-04-16T23:21:50.473Z,98778.00
2019-04-16T23:32:33.157Z,98796.00
2019-04-16T23:43:15.385Z,98812.00
2019-04-16T23:54:00.852Z,98838.00
